createdAt,value
2018-12-25T00:01:39.335Z,77.9
2018-12-25T00:16:51.181Z,77.5
2018-12-25T00:32:02.533Z,78.7
2018-12-25T00:47:14.119Z,79.5
2018-12-25T01:02:25.740Z,79
2018-12-25T01:17:37.364Z,79.9
2018-12-25T01:32:43.890Z,81.8
2018-12-25T01:48:00.547Z,83.2
2018-12-25T02:03:12.152Z,85
2018-12-25T02:18:25.228Z,87
2018-12-25T02:33:35.296Z,87
2018-12-25T02:48:46.827Z,86.8
2018-12-25T03:03:58.365Z,86.6
2018-12-25T03:19:09.988Z,86.5
2018-12-25T03:34:21.533Z,87.2
2018-12-25T03:49:31.083Z,87.8
2018-12-25T04:04:44.898Z,87.8
2018-12-25T04:19:56.453Z,86.8
2018-12-25T04:35:08.107Z,86.8
2018-12-25T04:50:12.320Z,86.2
2018-12-25T05:05:31.890Z,85.3
2018-12-25T05:20:43.502Z,84.7
2018-12-25T05:35:55.220Z,84.2
2018-12-25T05:51:07.039Z,84.4
2018-12-25T06:06:18.793Z,83.6
2018-12-25T06:21:30.584Z,82.2
2018-12-25T06:36:42.292Z,81.1
2018-12-25T06:51:54.216Z,79.6
2018-12-25T07:07:00.986Z,78.6
2018-12-25T07:22:17.761Z,77.7
2018-12-25T07:37:29.600Z,77.5
2018-12-25T07:52:41.457Z,77.3
2018-12-25T08:07:53.347Z,78.1
2018-12-25T08:23:05.226Z,78.9
2018-12-25T08:38:17.237Z,79.2
2018-12-25T08:53:29.019Z,79.2
2018-12-25T09:08:41.110Z,78
2018-12-25T09:23:49.819Z,77.2
2018-12-25T09:39:04.856Z,76.5
2018-12-25T09:54:17.015Z,77.2
2018-12-25T10:09:29.049Z,77.2
2018-12-25T10:24:41.103Z,76.1
2018-12-25T10:39:53.152Z,76.9
2018-12-25T10:55:05.284Z,76
2018-12-25T11:10:19.251Z,76.3
2018-12-25T11:25:29.456Z,75.3
2018-12-25T11:40:40.304Z,75.5
2018-12-25T11:55:53.945Z,75.9
2018-12-25T12:11:06.254Z,77.1
2018-12-25T12:26:18.406Z,77.2
2018-12-25T12:41:23.120Z,78.2
2018-12-25T12:56:42.934Z,78.2
2018-12-25T13:11:55.097Z,79.4
2018-12-25T13:27:07.336Z,79.5
2018-12-25T13:42:19.590Z,79
2018-12-25T13:57:31.874Z,79.8
2018-12-25T14:12:44.181Z,80.7
2018-12-25T14:27:56.486Z,81.4
2018-12-25T14:43:08.802Z,82.2
2018-12-25T14:58:15.357Z,82.5
2018-12-25T15:13:33.242Z,82.7
2018-12-25T15:28:46.583Z,81.7
2018-12-25T15:43:57.778Z,80.4
2018-12-25T15:59:10.063Z,79.8
2018-12-25T16:14:22.312Z,79.8
2018-12-25T16:29:34.917Z,79.8
2018-12-25T16:44:46.883Z,77.8
2018-12-25T16:59:59.170Z,77.3
2018-12-25T17:15:07.627Z,75.9
2018-12-25T17:30:23.655Z,76.3
2018-12-25T17:45:35.938Z,75.5
2018-12-25T18:00:48.234Z,74.3
2018-12-25T18:16:00.517Z,73.6
2018-12-25T18:31:13.075Z,73.6
2018-12-25T18:46:25.166Z,73.4
2018-12-25T19:01:37.572Z,72.5
2018-12-25T19:16:51.808Z,71.8
2018-12-25T19:31:59.400Z,71.3
2018-12-25T19:47:15.684Z,71.2
2018-12-25T20:02:26.729Z,70.8
2018-12-25T20:17:39.073Z,71.2
2018-12-25T20:32:42.248Z,70.5
2018-12-25T20:48:03.584Z,70.9
2018-12-25T21:03:15.939Z,69.4
2018-12-25T21:18:28.970Z,68.8
2018-12-25T21:33:40.452Z,69.9
2018-12-25T21:48:51.186Z,70
2018-12-25T22:04:05.252Z,70.4
2018-12-25T22:19:17.609Z,70.3
2018-12-25T22:34:29.822Z,70.4
2018-12-25T22:49:34.492Z,70.5
2018-12-25T23:04:54.512Z,70.6
2018-12-25T23:20:06.857Z,71.3
2018-12-25T23:35:19.258Z,70.2
2018-12-25T23:50:31.596Z,69.4
